Ship Status Report: callsign CFN5364

sailwx.info

Track history (hours):
 
Tides and Currents Weather Stations Pressure Air Temp Water Temp Dewpoint Dewpoint Depression Visibility Wind Speed Wind Dir Waves Ship Positions

Callsign CFN5364 (name unknown)

Last reported at 2015-Aug-06 04:33 UTC. Time now 2015-Aug-29 09:26 UTC.
Position N 51°08' W 127°51'.
Warning: this ship's position is 23 days out of date.

Date/timePositionNaut miles runAvg speedWind from/ knotsBaromVisibWave heightAir tempDewpointWater temp
2015-Aug-06 04:33N 51°08' W 127°51'8 0.2
2015-Aug-04 16:29N 51°16' W 127°53'1819.8
2015-Aug-04 15:34N 50°58' W 127°45'1818.4
2015-Aug-04 14:34N 50°44' W 127°28'0 0.1
2015-Aug-04 11:14N 50°44' W 127°27'0 0.0
2015-Aug-04 10:06N 50°44' W 127°27'0 0.0
2015-Aug-04 09:34N 50°44' W 127°27'0 0.0
2015-Aug-04 06:03N 50°44' W 127°27'611.4
2015-Aug-04 05:34N 50°49' W 127°27'1918.2
2015-Aug-04 04:32N 51°03' W 127°47'27 0.8
2015-Aug-02 17:22N 51°30' W 127°51'1619.5
2015-Aug-02 16:32N 51°14' W 127°52'1919.8
2015-Aug-02 15:33N 50°56' W 127°40'15 1.6
2015-Aug-02 06:14N 50°44' W 127°27'1014.5
2015-Aug-02 05:32N 50°52' W 127°35'1918.9
2015-Aug-02 04:32N 51°09' W 127°50'  
Track history (hours):
 
Tides and Currents Weather Stations Pressure Air Temp Water Temp Dewpoint Dewpoint Depression Visibility Wind Speed Wind Dir Waves Ship Positions

Callsign CFN5364 (name unknown)

Last reported at 2015-Aug-06 04:33 UTC. Time now 2015-Aug-29 09:26 UTC.
Position N 51°08' W 127°51'.
Warning: this ship's position is 23 days out of date.

Date/timePositionNaut miles runAvg speedWind from/ knotsBaromVisibWave heightAir tempDewpointWater temp
2015-Aug-06 04:33N 51°08' W 127°51'8 0.2
2015-Aug-04 16:29N 51°16' W 127°53'1819.8
2015-Aug-04 15:34N 50°58' W 127°45'1818.4
2015-Aug-04 14:34N 50°44' W 127°28'0 0.1
2015-Aug-04 11:14N 50°44' W 127°27'0 0.0
2015-Aug-04 10:06N 50°44' W 127°27'0 0.0
2015-Aug-04 09:34N 50°44' W 127°27'0 0.0
2015-Aug-04 06:03N 50°44' W 127°27'611.4
2015-Aug-04 05:34N 50°49' W 127°27'1918.2
2015-Aug-04 04:32N 51°03' W 127°47'27 0.8
2015-Aug-02 17:22N 51°30' W 127°51'1619.5
2015-Aug-02 16:32N 51°14' W 127°52'1919.8
2015-Aug-02 15:33N 50°56' W 127°40'15 1.6
2015-Aug-02 06:14N 50°44' W 127°27'1014.5
2015-Aug-02 05:32N 50°52' W 127°35'1918.9
2015-Aug-02 04:32N 51°09' W 127°50'  

Dump ship's entire track history